sensor_id;sensor_type;location;lat;lon;timestamp;P1;durP1;ratioP1;P2;durP2;ratioP2
75429;SDS011;64127;51.488;5.462;2023-02-10T00:00:35;29.90;;;24.60;;
75429;SDS011;64127;51.488;5.462;2023-02-10T00:03:07;32.83;;;25.83;;
75429;SDS011;64127;51.488;5.462;2023-02-10T00:05:39;30.57;;;24.93;;
75429;SDS011;64127;51.488;5.462;2023-02-10T00:08:11;30.77;;;25.73;;
75429;SDS011;64127;51.488;5.462;2023-02-10T00:10:43;29.77;;;24.57;;
75429;SDS011;64127;51.488;5.462;2023-02-10T00:13:15;32.50;;;24.50;;
75429;SDS011;64127;51.488;5.462;2023-02-10T00:15:47;29.43;;;25.63;;
75429;SDS011;64127;51.488;5.462;2023-02-10T00:18:20;33.67;;;26.00;;
75429;SDS011;64127;51.488;5.462;2023-02-10T00:20:52;33.70;;;25.77;;
75429;SDS011;64127;51.488;5.462;2023-02-10T00:23:24;30.03;;;25.13;;
75429;SDS011;64127;51.488;5.462;2023-02-10T00:25:56;31.23;;;25.83;;
75429;SDS011;64127;51.488;5.462;2023-02-10T00:28:28;34.50;;;25.37;;
75429;SDS011;64127;51.488;5.462;2023-02-10T00:31:10;35.20;;;26.17;;
75429;SDS011;64127;51.488;5.462;2023-02-10T00:33:47;34.60;;;25.27;;
75429;SDS011;64127;51.488;5.462;2023-02-10T00:36:19;31.60;;;24.90;;
75429;SDS011;64127;51.488;5.462;2023-02-10T00:38:53;30.33;;;25.13;;
75429;SDS011;64127;51.488;5.462;2023-02-10T00:41:25;32.27;;;25.00;;
75429;SDS011;64127;51.488;5.462;2023-02-10T00:43:57;33.67;;;25.67;;
75429;SDS011;64127;51.488;5.462;2023-02-10T00:46:29;30.60;;;26.07;;
75429;SDS011;64127;51.488;5.462;2023-02-10T00:49:01;33.20;;;25.43;;
75429;SDS011;64127;51.488;5.462;2023-02-10T00:51:33;32.07;;;25.57;;
75429;SDS011;64127;51.488;5.462;2023-02-10T00:54:05;32.33;;;25.77;;
75429;SDS011;64127;51.488;5.462;2023-02-10T00:56:37;30.93;;;24.80;;
75429;SDS011;64127;51.488;5.462;2023-02-10T00:59:12;34.60;;;25.70;;
75429;SDS011;64127;51.488;5.462;2023-02-10T01:01:44;32.37;;;25.60;;
75429;SDS011;64127;51.488;5.462;2023-02-10T01:04:17;32.63;;;25.53;;
75429;SDS011;64127;51.488;5.462;2023-02-10T01:06:49;30.27;;;24.73;;
75429;SDS011;64127;51.488;5.462;2023-02-10T01:09:21;33.13;;;24.83;;
75429;SDS011;64127;51.488;5.462;2023-02-10T01:11:53;32.57;;;26.23;;
75429;SDS011;64127;51.488;5.462;2023-02-10T01:14:25;32.93;;;25.43;;
75429;SDS011;64127;51.488;5.462;2023-02-10T01:16:58;31.23;;;26.17;;
75429;SDS011;64127;51.488;5.462;2023-02-10T01:19:30;31.07;;;24.93;;
75429;SDS011;64127;51.488;5.462;2023-02-10T01:22:02;30.63;;;24.27;;
75429;SDS011;64127;51.488;5.462;2023-02-10T01:24:34;31.83;;;24.97;;
75429;SDS011;64127;51.488;5.462;2023-02-10T01:27:06;30.93;;;23.63;;
75429;SDS011;64127;51.488;5.462;2023-02-10T01:29:38;32.50;;;24.10;;
75429;SDS011;64127;51.488;5.462;2023-02-10T01:32:10;34.70;;;24.63;;
75429;SDS011;64127;51.488;5.462;2023-02-10T01:34:42;29.27;;;24.20;;
75429;SDS011;64127;51.488;5.462;2023-02-10T01:37:14;32.00;;;24.83;;
75429;SDS011;64127;51.488;5.462;2023-02-10T01:39:46;32.57;;;25.17;;
75429;SDS011;64127;51.488;5.462;2023-02-10T01:42:18;32.80;;;26.60;;
75429;SDS011;64127;51.488;5.462;2023-02-10T01:47:22;31.17;;;25.37;;
75429;SDS011;64127;51.488;5.462;2023-02-10T01:49:55;31.27;;;25.03;;
75429;SDS011;64127;51.488;5.462;2023-02-10T01:52:27;29.53;;;23.93;;
75429;SDS011;64127;51.488;5.462;2023-02-10T01:55:06;34.37;;;25.53;;
75429;SDS011;64127;51.488;5.462;2023-02-10T01:57:43;33.10;;;24.47;;
75429;SDS011;64127;51.488;5.462;2023-02-10T02:00:16;31.83;;;24.20;;
75429;SDS011;64127;51.488;5.462;2023-02-10T02:02:48;30.90;;;24.27;;
75429;SDS011;64127;51.488;5.462;2023-02-10T02:05:33;30.97;;;25.10;;
75429;SDS011;64127;51.488;5.462;2023-02-10T02:08:18;30.20;;;24.53;;
75429;SDS011;64127;51.488;5.462;2023-02-10T02:17:05;31.90;;;24.40;;
75429;SDS011;64127;51.488;5.462;2023-02-10T02:35:35;27.57;;;23.83;;
75429;SDS011;64127;51.488;5.462;2023-02-10T02:38:17;31.30;;;24.13;;
75429;SDS011;64127;51.488;5.462;2023-02-10T02:40:49;32.13;;;25.43;;
75429;SDS011;64127;51.488;5.462;2023-02-10T02:43:21;30.13;;;24.57;;
75429;SDS011;64127;51.488;5.462;2023-02-10T02:52:46;30.60;;;23.27;;
75429;SDS011;64127;51.488;5.462;2023-02-10T03:01:40;31.57;;;25.33;;
75429;SDS011;64127;51.488;5.462;2023-02-10T03:04:30;30.67;;;23.70;;
75429;SDS011;64127;51.488;5.462;2023-02-10T03:07:05;31.33;;;24.63;;
75429;SDS011;64127;51.488;5.462;2023-02-10T03:09:37;30.17;;;24.77;;
75429;SDS011;64127;51.488;5.462;2023-02-10T03:12:09;29.67;;;25.03;;
75429;SDS011;64127;51.488;5.462;2023-02-10T03:14:43;32.33;;;24.93;;
75429;SDS011;64127;51.488;5.462;2023-02-10T03:17:15;33.53;;;25.10;;
75429;SDS011;64127;51.488;5.462;2023-02-10T03:19:48;33.27;;;25.67;;
75429;SDS011;64127;51.488;5.462;2023-02-10T03:22:20;31.20;;;25.27;;
75429;SDS011;64127;51.488;5.462;2023-02-10T03:24:52;36.87;;;26.90;;
75429;SDS011;64127;51.488;5.462;2023-02-10T03:27:24;31.60;;;25.37;;
75429;SDS011;64127;51.488;5.462;2023-02-10T03:29:56;30.30;;;25.47;;
75429;SDS011;64127;51.488;5.462;2023-02-10T03:32:28;32.23;;;26.50;;
75429;SDS011;64127;51.488;5.462;2023-02-10T03:35:00;34.07;;;25.90;;
75429;SDS011;64127;51.488;5.462;2023-02-10T03:37:32;31.07;;;24.60;;
75429;SDS011;64127;51.488;5.462;2023-02-10T03:40:04;30.50;;;24.53;;
75429;SDS011;64127;51.488;5.462;2023-02-10T03:42:36;32.90;;;26.43;;
75429;SDS011;64127;51.488;5.462;2023-02-10T03:45:08;32.30;;;25.67;;
75429;SDS011;64127;51.488;5.462;2023-02-10T03:47:40;36.70;;;26.23;;
75429;SDS011;64127;51.488;5.462;2023-02-10T03:50:12;35.97;;;27.47;;
75429;SDS011;64127;51.488;5.462;2023-02-10T03:52:44;34.83;;;26.23;;
75429;SDS011;64127;51.488;5.462;2023-02-10T03:55:17;35.47;;;25.83;;
75429;SDS011;64127;51.488;5.462;2023-02-10T03:57:50;35.90;;;28.83;;
75429;SDS011;64127;51.488;5.462;2023-02-10T04:00:23;39.13;;;29.17;;
75429;SDS011;64127;51.488;5.462;2023-02-10T04:02:55;38.07;;;28.70;;
75429;SDS011;64127;51.488;5.462;2023-02-10T04:05:27;37.30;;;28.87;;
75429;SDS011;64127;51.488;5.462;2023-02-10T04:07:59;40.83;;;28.67;;
75429;SDS011;64127;51.488;5.462;2023-02-10T04:10:31;36.70;;;28.23;;
75429;SDS011;64127;51.488;5.462;2023-02-10T04:13:03;41.33;;;30.93;;
75429;SDS011;64127;51.488;5.462;2023-02-10T04:15:36;41.20;;;29.33;;
75429;SDS011;64127;51.488;5.462;2023-02-10T04:18:08;44.97;;;31.37;;
75429;SDS011;64127;51.488;5.462;2023-02-10T04:20:40;56.37;;;34.10;;
75429;SDS011;64127;51.488;5.462;2023-02-10T04:23:12;51.33;;;33.33;;
75429;SDS011;64127;51.488;5.462;2023-02-10T04:25:44;67.30;;;35.83;;
75429;SDS011;64127;51.488;5.462;2023-02-10T04:28:17;59.23;;;34.00;;
75429;SDS011;64127;51.488;5.462;2023-02-10T04:30:53;66.93;;;35.50;;
75429;SDS011;64127;51.488;5.462;2023-02-10T04:33:27;65.47;;;36.77;;
75429;SDS011;64127;51.488;5.462;2023-02-10T04:36:00;71.10;;;36.80;;
75429;SDS011;64127;51.488;5.462;2023-02-10T04:38:34;61.97;;;36.33;;
75429;SDS011;64127;51.488;5.462;2023-02-10T04:41:06;65.67;;;35.57;;
75429;SDS011;64127;51.488;5.462;2023-02-10T04:43:38;70.40;;;36.27;;
75429;SDS011;64127;51.488;5.462;2023-02-10T04:46:10;76.90;;;36.30;;
75429;SDS011;64127;51.488;5.462;2023-02-10T04:48:42;77.47;;;37.77;;
75429;SDS011;64127;51.488;5.462;2023-02-10T04:51:14;85.20;;;36.87;;
75429;SDS011;64127;51.488;5.462;2023-02-10T04:53:46;80.70;;;37.27;;
75429;SDS011;64127;51.488;5.462;2023-02-10T04:56:18;83.00;;;37.40;;
75429;SDS011;64127;51.488;5.462;2023-02-10T04:58:50;72.43;;;37.13;;
75429;SDS011;64127;51.488;5.462;2023-02-10T05:01:22;88.77;;;40.00;;
75429;SDS011;64127;51.488;5.462;2023-02-10T05:03:54;106.07;;;39.83;;
75429;SDS011;64127;51.488;5.462;2023-02-10T05:06:26;177.13;;;43.37;;
75429;SDS011;64127;51.488;5.462;2023-02-10T05:08:58;168.37;;;42.23;;
75429;SDS011;64127;51.488;5.462;2023-02-10T05:11:30;141.90;;;41.53;;
75429;SDS011;64127;51.488;5.462;2023-02-10T05:14:02;142.53;;;43.73;;
75429;SDS011;64127;51.488;5.462;2023-02-10T05:16:34;156.50;;;42.70;;
75429;SDS011;64127;51.488;5.462;2023-02-10T05:19:07;190.93;;;44.67;;
75429;SDS011;64127;51.488;5.462;2023-02-10T05:21:40;154.33;;;44.77;;
75429;SDS011;64127;51.488;5.462;2023-02-10T05:24:12;121.40;;;41.43;;
75429;SDS011;64127;51.488;5.462;2023-02-10T05:26:44;155.27;;;46.77;;
75429;SDS011;64127;51.488;5.462;2023-02-10T05:29:17;150.40;;;43.87;;
75429;SDS011;64127;51.488;5.462;2023-02-10T05:31:49;118.53;;;43.77;;
75429;SDS011;64127;51.488;5.462;2023-02-10T05:34:21;149.50;;;45.17;;
75429;SDS011;64127;51.488;5.462;2023-02-10T05:36:53;119.13;;;43.87;;
75429;SDS011;64127;51.488;5.462;2023-02-10T05:39:25;109.83;;;43.00;;
75429;SDS011;64127;51.488;5.462;2023-02-10T05:41:57;162.37;;;44.40;;
75429;SDS011;64127;51.488;5.462;2023-02-10T05:44:30;121.77;;;42.03;;
75429;SDS011;64127;51.488;5.462;2023-02-10T05:47:03;115.57;;;42.40;;
75429;SDS011;64127;51.488;5.462;2023-02-10T05:49:35;98.53;;;42.00;;
75429;SDS011;64127;51.488;5.462;2023-02-10T05:52:07;112.33;;;42.83;;
75429;SDS011;64127;51.488;5.462;2023-02-10T05:54:39;87.30;;;40.47;;
75429;SDS011;64127;51.488;5.462;2023-02-10T05:57:13;86.70;;;42.30;;
75429;SDS011;64127;51.488;5.462;2023-02-10T05:59:46;92.20;;;42.20;;
75429;SDS011;64127;51.488;5.462;2023-02-10T06:02:18;80.47;;;39.00;;
75429;SDS011;64127;51.488;5.462;2023-02-10T06:04:50;96.87;;;41.53;;
75429;SDS011;64127;51.488;5.462;2023-02-10T06:07:22;94.40;;;40.10;;
75429;SDS011;64127;51.488;5.462;2023-02-10T06:09:54;102.00;;;43.07;;
75429;SDS011;64127;51.488;5.462;2023-02-10T06:12:26;114.70;;;43.03;;
75429;SDS011;64127;51.488;5.462;2023-02-10T06:14:58;93.30;;;42.83;;
75429;SDS011;64127;51.488;5.462;2023-02-10T06:17:30;98.77;;;41.60;;
75429;SDS011;64127;51.488;5.462;2023-02-10T06:20:02;85.87;;;41.50;;
75429;SDS011;64127;51.488;5.462;2023-02-10T06:22:35;87.83;;;40.10;;
75429;SDS011;64127;51.488;5.462;2023-02-10T06:25:07;121.17;;;43.87;;
75429;SDS011;64127;51.488;5.462;2023-02-10T06:27:38;107.07;;;43.33;;
75429;SDS011;64127;51.488;5.462;2023-02-10T06:30:10;91.43;;;43.17;;
75429;SDS011;64127;51.488;5.462;2023-02-10T06:32:43;90.07;;;42.03;;
75429;SDS011;64127;51.488;5.462;2023-02-10T06:35:15;88.30;;;42.10;;
75429;SDS011;64127;51.488;5.462;2023-02-10T06:37:47;103.07;;;42.93;;
75429;SDS011;64127;51.488;5.462;2023-02-10T06:40:20;91.10;;;42.73;;
75429;SDS011;64127;51.488;5.462;2023-02-10T06:42:51;77.50;;;40.43;;
75429;SDS011;64127;51.488;5.462;2023-02-10T06:45:23;88.27;;;42.63;;
75429;SDS011;64127;51.488;5.462;2023-02-10T06:47:55;84.97;;;41.63;;
75429;SDS011;64127;51.488;5.462;2023-02-10T06:50:27;101.73;;;41.37;;
75429;SDS011;64127;51.488;5.462;2023-02-10T06:52:59;92.17;;;42.90;;
75429;SDS011;64127;51.488;5.462;2023-02-10T06:55:31;93.63;;;43.20;;
75429;SDS011;64127;51.488;5.462;2023-02-10T06:58:03;94.33;;;41.47;;
75429;SDS011;64127;51.488;5.462;2023-02-10T07:00:35;148.18;;;67.05;;
75429;SDS011;64127;51.488;5.462;2023-02-10T07:03:08;114.80;;;51.67;;
75429;SDS011;64127;51.488;5.462;2023-02-10T07:05:43;90.27;;;44.77;;
75429;SDS011;64127;51.488;5.462;2023-02-10T07:08:15;92.90;;;43.97;;
75429;SDS011;64127;51.488;5.462;2023-02-10T07:10:48;90.07;;;44.30;;
75429;SDS011;64127;51.488;5.462;2023-02-10T07:13:20;89.53;;;43.10;;
75429;SDS011;64127;51.488;5.462;2023-02-10T07:15:52;95.83;;;43.27;;
75429;SDS011;64127;51.488;5.462;2023-02-10T07:18:25;96.80;;;43.97;;
75429;SDS011;64127;51.488;5.462;2023-02-10T07:20:59;91.83;;;42.93;;
75429;SDS011;64127;51.488;5.462;2023-02-10T07:23:31;89.90;;;42.70;;
75429;SDS011;64127;51.488;5.462;2023-02-10T07:26:07;91.90;;;44.47;;
75429;SDS011;64127;51.488;5.462;2023-02-10T07:28:40;90.07;;;43.20;;
75429;SDS011;64127;51.488;5.462;2023-02-10T07:31:12;91.03;;;43.50;;
75429;SDS011;64127;51.488;5.462;2023-02-10T07:33:44;96.40;;;44.73;;
75429;SDS011;64127;51.488;5.462;2023-02-10T07:36:16;92.07;;;42.87;;
75429;SDS011;64127;51.488;5.462;2023-02-10T07:38:48;93.73;;;45.03;;
75429;SDS011;64127;51.488;5.462;2023-02-10T07:41:20;94.90;;;44.90;;
75429;SDS011;64127;51.488;5.462;2023-02-10T07:43:52;87.10;;;42.47;;
75429;SDS011;64127;51.488;5.462;2023-02-10T07:46:25;85.83;;;42.57;;
75429;SDS011;64127;51.488;5.462;2023-02-10T07:48:57;86.33;;;41.63;;
75429;SDS011;64127;51.488;5.462;2023-02-10T07:51:29;81.90;;;40.83;;
75429;SDS011;64127;51.488;5.462;2023-02-10T07:54:01;83.67;;;42.17;;
75429;SDS011;64127;51.488;5.462;2023-02-10T07:56:33;80.10;;;40.17;;
75429;SDS011;64127;51.488;5.462;2023-02-10T07:59:05;77.87;;;41.03;;
75429;SDS011;64127;51.488;5.462;2023-02-10T08:01:42;69.20;;;38.97;;
75429;SDS011;64127;51.488;5.462;2023-02-10T08:04:14;77.10;;;40.87;;
75429;SDS011;64127;51.488;5.462;2023-02-10T08:06:46;76.73;;;41.63;;
75429;SDS011;64127;51.488;5.462;2023-02-10T08:09:18;78.80;;;39.97;;
75429;SDS011;64127;51.488;5.462;2023-02-10T08:11:50;75.60;;;39.53;;
75429;SDS011;64127;51.488;5.462;2023-02-10T08:14:22;70.93;;;39.03;;
75429;SDS011;64127;51.488;5.462;2023-02-10T08:16:55;71.60;;;40.43;;
75429;SDS011;64127;51.488;5.462;2023-02-10T08:19:28;72.40;;;39.83;;
75429;SDS011;64127;51.488;5.462;2023-02-10T08:22:00;68.30;;;38.27;;
75429;SDS011;64127;51.488;5.462;2023-02-10T08:24:32;69.37;;;38.83;;
75429;SDS011;64127;51.488;5.462;2023-02-10T08:27:04;65.37;;;37.57;;
75429;SDS011;64127;51.488;5.462;2023-02-10T08:29:42;67.97;;;38.40;;
75429;SDS011;64127;51.488;5.462;2023-02-10T08:32:14;69.47;;;37.77;;
75429;SDS011;64127;51.488;5.462;2023-02-10T08:34:50;67.00;;;38.03;;
75429;SDS011;64127;51.488;5.462;2023-02-10T08:37:23;76.77;;;41.53;;
75429;SDS011;64127;51.488;5.462;2023-02-10T08:39:55;67.60;;;39.10;;
75429;SDS011;64127;51.488;5.462;2023-02-10T08:42:27;74.33;;;39.00;;
75429;SDS011;64127;51.488;5.462;2023-02-10T08:44:59;71.53;;;39.37;;
75429;SDS011;64127;51.488;5.462;2023-02-10T08:47:32;75.53;;;39.33;;
75429;SDS011;64127;51.488;5.462;2023-02-10T08:50:05;76.00;;;41.43;;
75429;SDS011;64127;51.488;5.462;2023-02-10T08:52:38;73.00;;;39.43;;
75429;SDS011;64127;51.488;5.462;2023-02-10T08:55:10;72.43;;;39.90;;
75429;SDS011;64127;51.488;5.462;2023-02-10T08:57:42;69.77;;;39.97;;
75429;SDS011;64127;51.488;5.462;2023-02-10T09:00:14;77.07;;;40.80;;
75429;SDS011;64127;51.488;5.462;2023-02-10T09:02:48;73.23;;;41.67;;
75429;SDS011;64127;51.488;5.462;2023-02-10T09:05:21;72.40;;;40.77;;
75429;SDS011;64127;51.488;5.462;2023-02-10T09:07:53;70.17;;;40.13;;
75429;SDS011;64127;51.488;5.462;2023-02-10T09:10:25;74.13;;;40.70;;
75429;SDS011;64127;51.488;5.462;2023-02-10T09:12:57;79.53;;;43.53;;
75429;SDS011;64127;51.488;5.462;2023-02-10T09:15:29;71.27;;;40.97;;
75429;SDS011;64127;51.488;5.462;2023-02-10T09:18:01;77.70;;;42.43;;
75429;SDS011;64127;51.488;5.462;2023-02-10T09:20:33;72.90;;;41.33;;
75429;SDS011;64127;51.488;5.462;2023-02-10T09:23:06;76.00;;;40.93;;
75429;SDS011;64127;51.488;5.462;2023-02-10T09:25:38;72.37;;;42.03;;
75429;SDS011;64127;51.488;5.462;2023-02-10T09:28:10;74.17;;;42.27;;
75429;SDS011;64127;51.488;5.462;2023-02-10T09:30:42;72.10;;;39.53;;
75429;SDS011;64127;51.488;5.462;2023-02-10T09:33:15;67.80;;;39.23;;
75429;SDS011;64127;51.488;5.462;2023-02-10T09:35:48;69.53;;;39.30;;
75429;SDS011;64127;51.488;5.462;2023-02-10T09:38:20;68.47;;;39.13;;
75429;SDS011;64127;51.488;5.462;2023-02-10T09:41:00;68.43;;;38.20;;
75429;SDS011;64127;51.488;5.462;2023-02-10T09:46:42;62.17;;;35.37;;
75429;SDS011;64127;51.488;5.462;2023-02-10T09:54:57;65.27;;;35.23;;
75429;SDS011;64127;51.488;5.462;2023-02-10T09:57:39;65.03;;;35.53;;
75429;SDS011;64127;51.488;5.462;2023-02-10T10:00:30;67.53;;;36.63;;
75429;SDS011;64127;51.488;5.462;2023-02-10T10:03:10;62.00;;;35.47;;
75429;SDS011;64127;51.488;5.462;2023-02-10T10:08:52;61.60;;;35.67;;
75429;SDS011;64127;51.488;5.462;2023-02-10T10:11:45;55.97;;;33.73;;
75429;SDS011;64127;51.488;5.462;2023-02-10T10:14:24;56.13;;;34.03;;
75429;SDS011;64127;51.488;5.462;2023-02-10T10:20:29;53.63;;;34.13;;
75429;SDS011;64127;51.488;5.462;2023-02-10T10:23:15;54.60;;;34.67;;
75429;SDS011;64127;51.488;5.462;2023-02-10T10:32:47;54.60;;;34.37;;
75429;SDS011;64127;51.488;5.462;2023-02-10T10:35:25;55.00;;;35.87;;
75429;SDS011;64127;51.488;5.462;2023-02-10T10:38:21;58.27;;;35.97;;
75429;SDS011;64127;51.488;5.462;2023-02-10T10:41:10;56.90;;;36.50;;
75429;SDS011;64127;51.488;5.462;2023-02-10T10:43:46;53.87;;;35.93;;
75429;SDS011;64127;51.488;5.462;2023-02-10T10:46:28;51.03;;;36.30;;
75429;SDS011;64127;51.488;5.462;2023-02-10T10:49:09;50.87;;;35.30;;
75429;SDS011;64127;51.488;5.462;2023-02-10T10:51:41;52.80;;;36.73;;
75429;SDS011;64127;51.488;5.462;2023-02-10T10:54:18;52.77;;;36.20;;
75429;SDS011;64127;51.488;5.462;2023-02-10T10:56:54;50.27;;;36.20;;
75429;SDS011;64127;51.488;5.462;2023-02-10T10:59:37;53.93;;;36.43;;
75429;SDS011;64127;51.488;5.462;2023-02-10T11:02:21;52.17;;;36.90;;
75429;SDS011;64127;51.488;5.462;2023-02-10T11:05:14;52.00;;;37.30;;
75429;SDS011;64127;51.488;5.462;2023-02-10T11:07:50;51.53;;;39.13;;
75429;SDS011;64127;51.488;5.462;2023-02-10T11:13:23;50.37;;;37.97;;
75429;SDS011;64127;51.488;5.462;2023-02-10T11:18:53;52.40;;;38.33;;
75429;SDS011;64127;51.488;5.462;2023-02-10T11:21:36;53.37;;;38.40;;
75429;SDS011;64127;51.488;5.462;2023-02-10T11:24:26;49.03;;;37.97;;
75429;SDS011;64127;51.488;5.462;2023-02-10T11:27:04;47.43;;;37.03;;
75429;SDS011;64127;51.488;5.462;2023-02-10T11:29:48;49.17;;;36.97;;
75429;SDS011;64127;51.488;5.462;2023-02-10T11:32:29;48.33;;;35.90;;
75429;SDS011;64127;51.488;5.462;2023-02-10T11:35:06;50.83;;;37.50;;
75429;SDS011;64127;51.488;5.462;2023-02-10T11:37:54;46.63;;;35.43;;
75429;SDS011;64127;51.488;5.462;2023-02-10T11:40:52;44.07;;;35.70;;
75429;SDS011;64127;51.488;5.462;2023-02-10T11:43:29;44.87;;;33.67;;
75429;SDS011;64127;51.488;5.462;2023-02-10T11:46:07;44.83;;;33.13;;
75429;SDS011;64127;51.488;5.462;2023-02-10T11:49:12;50.07;;;33.97;;
75429;SDS011;64127;51.488;5.462;2023-02-10T11:51:53;41.00;;;33.67;;
75429;SDS011;64127;51.488;5.462;2023-02-10T11:54:27;43.87;;;32.73;;
75429;SDS011;64127;51.488;5.462;2023-02-10T12:06:54;37.67;;;28.60;;
75429;SDS011;64127;51.488;5.462;2023-02-10T12:21:19;34.93;;;29.67;;
75429;SDS011;64127;51.488;5.462;2023-02-10T12:24:18;34.70;;;28.57;;
75429;SDS011;64127;51.488;5.462;2023-02-10T12:42:40;32.73;;;27.43;;
75429;SDS011;64127;51.488;5.462;2023-02-10T12:54:14;30.47;;;26.13;;
75429;SDS011;64127;51.488;5.462;2023-02-10T13:00:36;30.23;;;24.47;;
75429;SDS011;64127;51.488;5.462;2023-02-10T13:03:37;28.47;;;23.90;;
75429;SDS011;64127;51.488;5.462;2023-02-10T13:09:20;29.40;;;23.40;;
75429;SDS011;64127;51.488;5.462;2023-02-10T13:12:27;28.80;;;24.17;;
75429;SDS011;64127;51.488;5.462;2023-02-10T13:15:25;27.50;;;22.43;;
75429;SDS011;64127;51.488;5.462;2023-02-10T13:21:04;24.97;;;22.40;;
75429;SDS011;64127;51.488;5.462;2023-02-10T13:35:43;28.70;;;25.10;;
75429;SDS011;64127;51.488;5.462;2023-02-10T13:38:18;29.43;;;25.93;;
75429;SDS011;64127;51.488;5.462;2023-02-10T13:40:55;29.27;;;25.40;;
75429;SDS011;64127;51.488;5.462;2023-02-10T13:43:54;29.73;;;25.50;;
75429;SDS011;64127;51.488;5.462;2023-02-10T13:46:29;31.10;;;24.83;;
75429;SDS011;64127;51.488;5.462;2023-02-10T13:49:02;31.33;;;24.47;;
75429;SDS011;64127;51.488;5.462;2023-02-10T13:51:36;29.03;;;23.83;;
75429;SDS011;64127;51.488;5.462;2023-02-10T13:54:26;27.97;;;24.40;;
75429;SDS011;64127;51.488;5.462;2023-02-10T13:57:01;31.23;;;22.73;;
75429;SDS011;64127;51.488;5.462;2023-02-10T13:59:36;25.00;;;21.43;;
75429;SDS011;64127;51.488;5.462;2023-02-10T14:04:55;26.03;;;22.10;;
75429;SDS011;64127;51.488;5.462;2023-02-10T14:13:37;26.00;;;22.47;;
75429;SDS011;64127;51.488;5.462;2023-02-10T14:18:46;25.60;;;21.50;;
75429;SDS011;64127;51.488;5.462;2023-02-10T14:21:41;27.67;;;22.87;;
75429;SDS011;64127;51.488;5.462;2023-02-10T14:24:25;26.13;;;23.23;;
75429;SDS011;64127;51.488;5.462;2023-02-10T14:27:21;28.57;;;23.03;;
75429;SDS011;64127;51.488;5.462;2023-02-10T14:30:12;27.40;;;22.60;;
75429;SDS011;64127;51.488;5.462;2023-02-10T14:32:53;27.90;;;23.53;;
75429;SDS011;64127;51.488;5.462;2023-02-10T14:35:26;29.33;;;24.13;;
75429;SDS011;64127;51.488;5.462;2023-02-10T14:38:00;29.33;;;24.83;;
75429;SDS011;64127;51.488;5.462;2023-02-10T14:40:32;29.23;;;25.37;;
75429;SDS011;64127;51.488;5.462;2023-02-10T14:43:04;32.23;;;25.73;;
75429;SDS011;64127;51.488;5.462;2023-02-10T14:45:36;32.27;;;26.17;;
75429;SDS011;64127;51.488;5.462;2023-02-10T14:48:12;32.10;;;26.53;;
75429;SDS011;64127;51.488;5.462;2023-02-10T14:51:00;28.50;;;24.80;;
75429;SDS011;64127;51.488;5.462;2023-02-10T14:53:40;29.07;;;24.57;;
75429;SDS011;64127;51.488;5.462;2023-02-10T14:56:33;29.50;;;24.53;;
75429;SDS011;64127;51.488;5.462;2023-02-10T14:59:04;27.30;;;23.77;;
75429;SDS011;64127;51.488;5.462;2023-02-10T15:01:48;29.47;;;23.50;;
75429;SDS011;64127;51.488;5.462;2023-02-10T15:04:21;28.70;;;24.47;;
75429;SDS011;64127;51.488;5.462;2023-02-10T15:06:56;28.90;;;24.17;;
75429;SDS011;64127;51.488;5.462;2023-02-10T15:09:31;31.10;;;25.30;;
75429;SDS011;64127;51.488;5.462;2023-02-10T15:12:07;27.07;;;24.00;;
75429;SDS011;64127;51.488;5.462;2023-02-10T15:15:02;25.43;;;22.07;;
75429;SDS011;64127;51.488;5.462;2023-02-10T15:17:55;28.27;;;22.40;;
75429;SDS011;64127;51.488;5.462;2023-02-10T15:20:39;27.40;;;22.93;;
75429;SDS011;64127;51.488;5.462;2023-02-10T15:23:13;27.90;;;21.97;;
75429;SDS011;64127;51.488;5.462;2023-02-10T15:28:39;27.90;;;23.00;;
75429;SDS011;64127;51.488;5.462;2023-02-10T15:31:23;29.43;;;21.87;;
75429;SDS011;64127;51.488;5.462;2023-02-10T15:33:58;28.70;;;22.40;;
75429;SDS011;64127;51.488;5.462;2023-02-10T15:36:34;28.43;;;21.87;;
75429;SDS011;64127;51.488;5.462;2023-02-10T15:39:22;26.03;;;21.23;;
75429;SDS011;64127;51.488;5.462;2023-02-10T15:41:59;26.27;;;22.27;;
75429;SDS011;64127;51.488;5.462;2023-02-10T15:45:18;27.67;;;21.93;;
75429;SDS011;64127;51.488;5.462;2023-02-10T15:47:54;28.43;;;22.10;;
75429;SDS011;64127;51.488;5.462;2023-02-10T15:50:37;28.93;;;21.30;;
75429;SDS011;64127;51.488;5.462;2023-02-10T15:53:09;27.93;;;21.57;;
75429;SDS011;64127;51.488;5.462;2023-02-10T15:55:50;28.20;;;21.90;;
75429;SDS011;64127;51.488;5.462;2023-02-10T15:58:22;28.57;;;21.93;;
75429;SDS011;64127;51.488;5.462;2023-02-10T16:00:54;30.53;;;22.53;;
75429;SDS011;64127;51.488;5.462;2023-02-10T16:03:26;28.23;;;22.43;;
75429;SDS011;64127;51.488;5.462;2023-02-10T16:05:58;26.17;;;21.47;;
75429;SDS011;64127;51.488;5.462;2023-02-10T16:08:33;30.77;;;22.37;;
75429;SDS011;64127;51.488;5.462;2023-02-10T16:11:05;27.73;;;21.57;;
75429;SDS011;64127;51.488;5.462;2023-02-10T16:13:37;29.70;;;23.40;;
75429;SDS011;64127;51.488;5.462;2023-02-10T16:16:12;27.10;;;22.27;;
75429;SDS011;64127;51.488;5.462;2023-02-10T16:18:47;29.77;;;22.87;;
75429;SDS011;64127;51.488;5.462;2023-02-10T16:21:19;28.00;;;21.67;;
75429;SDS011;64127;51.488;5.462;2023-02-10T16:23:51;28.30;;;21.83;;
75429;SDS011;64127;51.488;5.462;2023-02-10T16:26:23;28.10;;;21.63;;
75429;SDS011;64127;51.488;5.462;2023-02-10T16:28:55;28.83;;;22.03;;
75429;SDS011;64127;51.488;5.462;2023-02-10T16:31:27;28.77;;;21.87;;
75429;SDS011;64127;51.488;5.462;2023-02-10T16:33:59;32.10;;;22.83;;
75429;SDS011;64127;51.488;5.462;2023-02-10T16:36:31;28.33;;;21.80;;
75429;SDS011;64127;51.488;5.462;2023-02-10T16:39:04;30.47;;;22.40;;
75429;SDS011;64127;51.488;5.462;2023-02-10T16:41:41;31.03;;;23.10;;
75429;SDS011;64127;51.488;5.462;2023-02-10T16:44:13;33.93;;;22.70;;
75429;SDS011;64127;51.488;5.462;2023-02-10T16:46:46;33.10;;;23.80;;
75429;SDS011;64127;51.488;5.462;2023-02-10T16:49:18;32.27;;;24.57;;
75429;SDS011;64127;51.488;5.462;2023-02-10T16:51:50;31.63;;;23.63;;
75429;SDS011;64127;51.488;5.462;2023-02-10T16:54:23;33.20;;;23.77;;
75429;SDS011;64127;51.488;5.462;2023-02-10T16:56:55;32.67;;;23.67;;
75429;SDS011;64127;51.488;5.462;2023-02-10T16:59:27;32.07;;;24.23;;
75429;SDS011;64127;51.488;5.462;2023-02-10T17:02:01;35.43;;;24.63;;
75429;SDS011;64127;51.488;5.462;2023-02-10T17:04:34;38.27;;;25.03;;
75429;SDS011;64127;51.488;5.462;2023-02-10T17:07:06;36.47;;;24.40;;
75429;SDS011;64127;51.488;5.462;2023-02-10T17:09:38;36.17;;;24.30;;
75429;SDS011;64127;51.488;5.462;2023-02-10T17:12:10;38.43;;;25.63;;
75429;SDS011;64127;51.488;5.462;2023-02-10T17:14:42;34.20;;;25.27;;
75429;SDS011;64127;51.488;5.462;2023-02-10T17:17:14;34.10;;;24.80;;
75429;SDS011;64127;51.488;5.462;2023-02-10T17:19:46;35.57;;;25.43;;
75429;SDS011;64127;51.488;5.462;2023-02-10T17:22:18;37.73;;;25.20;;
75429;SDS011;64127;51.488;5.462;2023-02-10T17:24:50;36.70;;;24.67;;
75429;SDS011;64127;51.488;5.462;2023-02-10T17:27:22;35.47;;;25.40;;
75429;SDS011;64127;51.488;5.462;2023-02-10T17:29:54;36.33;;;25.27;;
75429;SDS011;64127;51.488;5.462;2023-02-10T17:32:27;36.07;;;26.13;;
75429;SDS011;64127;51.488;5.462;2023-02-10T17:34:59;35.77;;;25.40;;